sensor_id;sensor_type;location;lat;lon;timestamp;pressure;altitude;pressure_sealevel;temperature
64394;BMP280;50712;49.506;10.400;2023-06-19T00:00:02;97656.84;;;26.39
64394;BMP280;50712;49.506;10.400;2023-06-19T00:00:42;97660.19;;;26.38
64394;BMP280;50712;49.506;10.400;2023-06-19T00:01:12;97665.63;;;26.36
64394;BMP280;50712;49.506;10.400;2023-06-19T00:01:43;97657.03;;;26.34
64394;BMP280;50712;49.506;10.400;2023-06-19T00:02:13;97654.81;;;26.32
64394;BMP280;50712;49.506;10.400;2023-06-19T00:02:43;97663.75;;;26.31
64394;BMP280;50712;49.506;10.400;2023-06-19T00:03:14;97653.19;;;26.29
64394;BMP280;50712;49.506;10.400;2023-06-19T00:03:44;97660.81;;;26.29
64394;BMP280;50712;49.506;10.400;2023-06-19T00:04:15;97663.41;;;26.27
64394;BMP280;50712;49.506;10.400;2023-06-19T00:04:45;97661.19;;;26.25
64394;BMP280;50712;49.506;10.400;2023-06-19T00:05:15;97656.88;;;26.24
64394;BMP280;50712;49.506;10.400;2023-06-19T00:05:46;97658.25;;;26.23
64394;BMP280;50712;49.506;10.400;2023-06-19T00:06:16;97657.50;;;26.23
64394;BMP280;50712;49.506;10.400;2023-06-19T00:06:46;97649.88;;;26.23
64394;BMP280;50712;49.506;10.400;2023-06-19T00:07:18;97651.72;;;26.21
64394;BMP280;50712;49.506;10.400;2023-06-19T00:07:49;97656.59;;;26.20
64394;BMP280;50712;49.506;10.400;2023-06-19T00:08:19;97653.03;;;26.20
64394;BMP280;50712;49.506;10.400;2023-06-19T00:08:50;97655.09;;;26.19
64394;BMP280;50712;49.506;10.400;2023-06-19T00:09:21;97655.09;;;26.19
64394;BMP280;50712;49.506;10.400;2023-06-19T00:09:51;97657.13;;;26.19
64394;BMP280;50712;49.506;10.400;2023-06-19T00:10:21;97650.06;;;26.18
64394;BMP280;50712;49.506;10.400;2023-06-19T00:10:52;97656.38;;;26.18
64394;BMP280;50712;49.506;10.400;2023-06-19T00:11:22;97657.69;;;26.17
64394;BMP280;50712;49.506;10.400;2023-06-19T00:11:53;97654.91;;;26.17
64394;BMP280;50712;49.506;10.400;2023-06-19T00:12:23;97651.91;;;26.15
64394;BMP280;50712;49.506;10.400;2023-06-19T00:12:53;97653.97;;;26.15
64394;BMP280;50712;49.506;10.400;2023-06-19T00:13:24;97651.00;;;26.13
64394;BMP280;50712;49.506;10.400;2023-06-19T00:13:54;97648.97;;;26.13
64394;BMP280;50712;49.506;10.400;2023-06-19T00:14:25;97651.00;;;26.13
64394;BMP280;50712;49.506;10.400;2023-06-19T00:14:55;97648.22;;;26.13
64394;BMP280;50712;49.506;10.400;2023-06-19T00:15:26;97643.94;;;26.12
64394;BMP280;50712;49.506;10.400;2023-06-19T00:15:59;97647.31;;;26.10
64394;BMP280;50712;49.506;10.400;2023-06-19T00:16:30;97645.81;;;26.09
64394;BMP280;50712;49.506;10.400;2023-06-19T00:17:01;97649.94;;;26.08
64394;BMP280;50712;49.506;10.400;2023-06-19T00:17:32;97642.13;;;26.07
64394;BMP280;50712;49.506;10.400;2023-06-19T00:18:02;97642.13;;;26.07
64394;BMP280;50712;49.506;10.400;2023-06-19T00:18:32;97643.41;;;26.06
64394;BMP280;50712;49.506;10.400;2023-06-19T00:19:09;97643.41;;;26.06
64394;BMP280;50712;49.506;10.400;2023-06-19T00:19:42;97642.50;;;26.03
64394;BMP280;50712;49.506;10.400;2023-06-19T00:20:15;97649.56;;;26.04
64394;BMP280;50712;49.506;10.400;2023-06-19T00:20:45;97644.53;;;26.03
64394;BMP280;50712;49.506;10.400;2023-06-19T00:21:16;97643.78;;;26.02
64394;BMP280;50712;49.506;10.400;2023-06-19T00:21:46;97647.19;;;26.01
64394;BMP280;50712;49.506;10.400;2023-06-19T00:22:17;97649.97;;;26.01
64394;BMP280;50712;49.506;10.400;2023-06-19T00:22:47;97649.78;;;25.99
64394;BMP280;50712;49.506;10.400;2023-06-19T00:23:24;97649.03;;;25.98
64394;BMP280;50712;49.506;10.400;2023-06-19T00:23:54;97639.19;;;25.97
64394;BMP280;50712;49.506;10.400;2023-06-19T00:24:25;97644.75;;;25.97
64394;BMP280;50712;49.506;10.400;2023-06-19T00:24:55;97641.78;;;25.95
64394;BMP280;50712;49.506;10.400;2023-06-19T00:25:26;97647.94;;;25.94
64394;BMP280;50712;49.506;10.400;2023-06-19T00:25:56;97646.44;;;25.93
64394;BMP280;50712;49.506;10.400;2023-06-19T00:26:26;97645.72;;;25.92
64394;BMP280;50712;49.506;10.400;2023-06-19T00:26:57;97647.00;;;25.91
64394;BMP280;50712;49.506;10.400;2023-06-19T00:27:32;97638.47;;;25.89
64394;BMP280;50712;49.506;10.400;2023-06-19T00:28:02;97645.34;;;25.88
64394;BMP280;50712;49.506;10.400;2023-06-19T00:28:34;97644.63;;;25.88
64394;BMP280;50712;49.506;10.400;2023-06-19T00:29:08;97648.69;;;25.87
64394;BMP280;50712;49.506;10.400;2023-06-19T00:29:39;97642.38;;;25.86
64394;BMP280;50712;49.506;10.400;2023-06-19T00:30:09;97644.44;;;25.86
64394;BMP280;50712;49.506;10.400;2023-06-19T00:30:40;97643.69;;;25.85
64394;BMP280;50712;49.506;10.400;2023-06-19T00:31:11;97638.66;;;25.84
64394;BMP280;50712;49.506;10.400;2023-06-19T00:31:43;97642.03;;;25.82
64394;BMP280;50712;49.506;10.400;2023-06-19T00:32:14;97642.03;;;25.82
64394;BMP280;50712;49.506;10.400;2023-06-19T00:32:46;97641.28;;;25.82
64394;BMP280;50712;49.506;10.400;2023-06-19T00:33:16;97641.84;;;25.80
64394;BMP280;50712;49.506;10.400;2023-06-19T00:33:47;97642.41;;;25.79
64394;BMP280;50712;49.506;10.400;2023-06-19T00:34:18;97638.84;;;25.78
64394;BMP280;50712;49.506;10.400;2023-06-19T00:34:48;97641.66;;;25.78
64394;BMP280;50712;49.506;10.400;2023-06-19T00:35:18;97640.94;;;25.78
64394;BMP280;50712;49.506;10.400;2023-06-19T00:35:52;97642.97;;;25.77
64394;BMP280;50712;49.506;10.400;2023-06-19T00:36:24;97649.13;;;25.76
64394;BMP280;50712;49.506;10.400;2023-06-19T00:36:56;97650.41;;;25.75
64394;BMP280;50712;49.506;10.400;2023-06-19T00:37:27;97636.28;;;25.73
64394;BMP280;50712;49.506;10.400;2023-06-19T00:38:04;97640.38;;;25.72
64394;BMP280;50712;49.506;10.400;2023-06-19T00:38:35;97636.84;;;25.71
64394;BMP280;50712;49.506;10.400;2023-06-19T00:39:06;97641.69;;;25.71
64394;BMP280;50712;49.506;10.400;2023-06-19T00:39:39;97639.47;;;25.69
64394;BMP280;50712;49.506;10.400;2023-06-19T00:40:12;97644.28;;;25.68
64394;BMP280;50712;49.506;10.400;2023-06-19T00:40:50;97639.31;;;25.67
64394;BMP280;50712;49.506;10.400;2023-06-19T00:41:20;97642.09;;;25.67
64394;BMP280;50712;49.506;10.400;2023-06-19T00:41:51;97646.91;;;25.67
64394;BMP280;50712;49.506;10.400;2023-06-19T00:42:22;97640.59;;;25.66
64394;BMP280;50712;49.506;10.400;2023-06-19T00:42:53;97642.63;;;25.65
64394;BMP280;50712;49.506;10.400;2023-06-19T00:43:24;97637.59;;;25.64
64394;BMP280;50712;49.506;10.400;2023-06-19T00:43:54;97645.97;;;25.64
64394;BMP280;50712;49.506;10.400;2023-06-19T00:44:24;97641.72;;;25.63
64394;BMP280;50712;49.506;10.400;2023-06-19T00:44:55;97645.03;;;25.61
64394;BMP280;50712;49.506;10.400;2023-06-19T00:45:25;97647.13;;;25.61
64394;BMP280;50712;49.506;10.400;2023-06-19T00:45:57;97642.09;;;25.59
64394;BMP280;50712;49.506;10.400;2023-06-19T00:46:28;97642.66;;;25.58
64394;BMP280;50712;49.506;10.400;2023-06-19T00:47:00;97641.94;;;25.57
64394;BMP280;50712;49.506;10.400;2023-06-19T00:47:33;97636.88;;;25.56
64394;BMP280;50712;49.506;10.400;2023-06-19T00:48:04;97646.53;;;25.55
64394;BMP280;50712;49.506;10.400;2023-06-19T00:48:34;97642.31;;;25.54
64394;BMP280;50712;49.506;10.400;2023-06-19T00:49:05;97644.34;;;25.53
64394;BMP280;50712;49.506;10.400;2023-06-19T00:49:37;97649.03;;;25.51
64394;BMP280;50712;49.506;10.400;2023-06-19T00:50:07;97647.50;;;25.50
64394;BMP280;50712;49.506;10.400;2023-06-19T00:50:38;97646.75;;;25.49
64394;BMP280;50712;49.506;10.400;2023-06-19T00:51:08;97647.88;;;25.46
64394;BMP280;50712;49.506;10.400;2023-06-19T00:51:39;97644.34;;;25.46
64394;BMP280;50712;49.506;10.400;2023-06-19T00:52:10;97649.19;;;25.45
64394;BMP280;50712;49.506;10.400;2023-06-19T00:52:40;97641.41;;;25.44
64394;BMP280;50712;49.506;10.400;2023-06-19T00:53:10;97650.31;;;25.42
64394;BMP280;50712;49.506;10.400;2023-06-19T00:53:42;97644.72;;;25.42
64394;BMP280;50712;49.506;10.400;2023-06-19T00:54:12;97647.34;;;25.40
64394;BMP280;50712;49.506;10.400;2023-06-19T00:54:43;97659.78;;;25.39
64394;BMP280;50712;49.506;10.400;2023-06-19T00:55:14;97661.84;;;25.39
64394;BMP280;50712;49.506;10.400;2023-06-19T00:55:46;97658.31;;;25.38
64394;BMP280;50712;49.506;10.400;2023-06-19T00:56:17;97661.09;;;25.38
64394;BMP280;50712;49.506;10.400;2023-06-19T00:56:48;97653.31;;;25.37
64394;BMP280;50712;49.506;10.400;2023-06-19T00:57:21;97661.66;;;25.37
64394;BMP280;50712;49.506;10.400;2023-06-19T00:57:52;97658.13;;;25.36
64394;BMP280;50712;49.506;10.400;2023-06-19T00:58:23;97648.25;;;25.35
64394;BMP280;50712;49.506;10.400;2023-06-19T00:58:54;97653.84;;;25.35
64394;BMP280;50712;49.506;10.400;2023-06-19T00:59:25;97650.88;;;25.33
64394;BMP280;50712;49.506;10.400;2023-06-19T00:59:56;97650.88;;;25.33
64394;BMP280;50712;49.506;10.400;2023-06-19T01:00:28;97648.66;;;25.32
64394;BMP280;50712;49.506;10.400;2023-06-19T01:01:00;97650.72;;;25.31
64394;BMP280;50712;49.506;10.400;2023-06-19T01:01:31;97655.56;;;25.31
64394;BMP280;50712;49.506;10.400;2023-06-19T01:02:01;97652.75;;;25.31
64394;BMP280;50712;49.506;10.400;2023-06-19T01:02:33;97657.41;;;25.28
64394;BMP280;50712;49.506;10.400;2023-06-19T01:03:04;97653.88;;;25.28
64394;BMP280;50712;49.506;10.400;2023-06-19T01:03:35;97656.69;;;25.28
64394;BMP280;50712;49.506;10.400;2023-06-19T01:04:06;97655.16;;;25.27
64394;BMP280;50712;49.506;10.400;2023-06-19T01:04:36;97654.41;;;25.26
64394;BMP280;50712;49.506;10.400;2023-06-19T01:05:06;97652.94;;;25.25
64394;BMP280;50712;49.506;10.400;2023-06-19T01:05:37;97652.19;;;25.25
64394;BMP280;50712;49.506;10.400;2023-06-19T01:06:10;97659.09;;;25.24
64394;BMP280;50712;49.506;10.400;2023-06-19T01:06:48;97651.28;;;25.22
64394;BMP280;50712;49.506;10.400;2023-06-19T01:07:31;97656.09;;;25.22
64394;BMP280;50712;49.506;10.400;2023-06-19T01:08:43;97656.66;;;25.20
64394;BMP280;50712;49.506;10.400;2023-06-19T01:09:21;97657.97;;;25.19
64394;BMP280;50712;49.506;10.400;2023-06-19T01:09:55;97652.97;;;25.18
64394;BMP280;50712;49.506;10.400;2023-06-19T01:10:40;97660.56;;;25.17
64394;BMP280;50712;49.506;10.400;2023-06-19T01:11:20;97653.50;;;25.16
64394;BMP280;50712;49.506;10.400;2023-06-19T01:11:54;97654.06;;;25.15
64394;BMP280;50712;49.506;10.400;2023-06-19T01:12:36;97655.38;;;25.14
64394;BMP280;50712;49.506;10.400;2023-06-19T01:13:08;97656.69;;;25.13
64394;BMP280;50712;49.506;10.400;2023-06-19T01:13:46;97651.63;;;25.11
64394;BMP280;50712;49.506;10.400;2023-06-19T01:14:21;97655.19;;;25.12
64394;BMP280;50712;49.506;10.400;2023-06-19T01:15:00;97651.63;;;25.11
64394;BMP280;50712;49.506;10.400;2023-06-19T01:15:33;97650.16;;;25.10
64394;BMP280;50712;49.506;10.400;2023-06-19T01:16:06;97652.94;;;25.10
64394;BMP280;50712;49.506;10.400;2023-06-19T01:16:37;97657.06;;;25.09
64394;BMP280;50712;49.506;10.400;2023-06-19T01:17:08;97653.50;;;25.09
64394;BMP280;50712;49.506;10.400;2023-06-19T01:17:40;97656.28;;;25.09
64394;BMP280;50712;49.506;10.400;2023-06-19T01:18:11;97645.72;;;25.07
64394;BMP280;50712;49.506;10.400;2023-06-19T01:18:42;97652.03;;;25.08
64394;BMP280;50712;49.506;10.400;2023-06-19T01:19:15;97647.00;;;25.06
64394;BMP280;50712;49.506;10.400;2023-06-19T01:19:48;97648.50;;;25.07
64394;BMP280;50712;49.506;10.400;2023-06-19T01:20:19;97651.28;;;25.07
64394;BMP280;50712;49.506;10.400;2023-06-19T01:20:49;97650.53;;;25.07
64394;BMP280;50712;49.506;10.400;2023-06-19T01:21:20;97649.81;;;25.06
64394;BMP280;50712;49.506;10.400;2023-06-19T01:21:50;97642.16;;;25.07
64394;BMP280;50712;49.506;10.400;2023-06-19T01:22:30;97649.81;;;25.06
64394;BMP280;50712;49.506;10.400;2023-06-19T01:23:09;97647.75;;;25.07
64394;BMP280;50712;49.506;10.400;2023-06-19T01:23:41;97651.84;;;25.06
64394;BMP280;50712;49.506;10.400;2023-06-19T01:24:12;97647.00;;;25.06
64394;BMP280;50712;49.506;10.400;2023-06-19T01:24:43;97651.84;;;25.06
64394;BMP280;50712;49.506;10.400;2023-06-19T01:25:13;97649.81;;;25.06
64394;BMP280;50712;49.506;10.400;2023-06-19T01:25:44;97651.84;;;25.06
64394;BMP280;50712;49.506;10.400;2023-06-19T01:26:15;97640.69;;;25.06
64394;BMP280;50712;49.506;10.400;2023-06-19T01:26:46;97649.06;;;25.06
64394;BMP280;50712;49.506;10.400;2023-06-19T01:27:17;97651.84;;;25.06
64394;BMP280;50712;49.506;10.400;2023-06-19T01:27:48;97657.41;;;25.06
64394;BMP280;50712;49.506;10.400;2023-06-19T01:28:18;97653.31;;;25.07
64394;BMP280;50712;49.506;10.400;2023-06-19T01:28:49;97654.63;;;25.06
64394;BMP280;50712;49.506;10.400;2023-06-19T01:29:19;97653.88;;;25.05
64394;BMP280;50712;49.506;10.400;2023-06-19T01:29:50;97653.31;;;25.07
64394;BMP280;50712;49.506;10.400;2023-06-19T01:30:21;97649.81;;;25.06
64394;BMP280;50712;49.506;10.400;2023-06-19T01:30:51;97647.00;;;25.06
64394;BMP280;50712;49.506;10.400;2023-06-19T01:32:06;97651.09;;;25.05
64394;BMP280;50712;49.506;10.400;2023-06-19T01:33:25;97649.06;;;25.06
64394;BMP280;50712;49.506;10.400;2023-06-19T01:33:58;97649.81;;;25.06
64394;BMP280;50712;49.506;10.400;2023-06-19T01:34:31;97651.09;;;25.05
64394;BMP280;50712;49.506;10.400;2023-06-19T01:35:03;97649.06;;;25.06
64394;BMP280;50712;49.506;10.400;2023-06-19T01:35:36;97643.47;;;25.06
64394;BMP280;50712;49.506;10.400;2023-06-19T01:36:10;97652.59;;;25.06
64394;BMP280;50712;49.506;10.400;2023-06-19T01:36:40;97645.50;;;25.05
64394;BMP280;50712;49.506;10.400;2023-06-19T01:37:11;97649.81;;;25.06
64394;BMP280;50712;49.506;10.400;2023-06-19T01:37:42;97649.06;;;25.06
64394;BMP280;50712;49.506;10.400;2023-06-19T01:38:15;97641.97;;;25.05
64394;BMP280;50712;49.506;10.400;2023-06-19T01:38:47;97644.75;;;25.05
64394;BMP280;50712;49.506;10.400;2023-06-19T01:39:18;97644.75;;;25.05
64394;BMP280;50712;49.506;10.400;2023-06-19T01:39:51;97649.06;;;25.06
64394;BMP280;50712;49.506;10.400;2023-06-19T01:40:22;97644.75;;;25.05
64394;BMP280;50712;49.506;10.400;2023-06-19T01:40:57;97653.13;;;25.05
64394;BMP280;50712;49.506;10.400;2023-06-19T01:41:31;97653.88;;;25.05
64394;BMP280;50712;49.506;10.400;2023-06-19T01:42:02;97650.34;;;25.05
64394;BMP280;50712;49.506;10.400;2023-06-19T01:42:35;97652.41;;;25.04
64394;BMP280;50712;49.506;10.400;2023-06-19T01:43:08;97655.91;;;25.05
64394;BMP280;50712;49.506;10.400;2023-06-19T01:43:40;97645.50;;;25.05
64394;BMP280;50712;49.506;10.400;2023-06-19T01:44:11;97648.31;;;25.05
64394;BMP280;50712;49.506;10.400;2023-06-19T01:44:41;97657.41;;;25.06
64394;BMP280;50712;49.506;10.400;2023-06-19T01:45:12;97648.31;;;25.05
64394;BMP280;50712;49.506;10.400;2023-06-19T01:45:43;97655.91;;;25.05
64394;BMP280;50712;49.506;10.400;2023-06-19T01:46:13;97655.91;;;25.05
64394;BMP280;50712;49.506;10.400;2023-06-19T01:46:46;97653.88;;;25.05
64394;BMP280;50712;49.506;10.400;2023-06-19T01:47:18;97651.09;;;25.05
64394;BMP280;50712;49.506;10.400;2023-06-19T01:47:50;97656.66;;;25.05
64394;BMP280;50712;49.506;10.400;2023-06-19T01:48:20;97654.63;;;25.06
64394;BMP280;50712;49.506;10.400;2023-06-19T01:48:50;97650.34;;;25.05
64394;BMP280;50712;49.506;10.400;2023-06-19T01:49:22;97651.09;;;25.05
64394;BMP280;50712;49.506;10.400;2023-06-19T01:49:52;97649.06;;;25.06
64394;BMP280;50712;49.506;10.400;2023-06-19T01:50:23;97651.09;;;25.05
64394;BMP280;50712;49.506;10.400;2023-06-19T01:50:54;97654.63;;;25.06
64394;BMP280;50712;49.506;10.400;2023-06-19T01:51:24;97649.06;;;25.06
64394;BMP280;50712;49.506;10.400;2023-06-19T01:51:55;97653.13;;;25.05
64394;BMP280;50712;49.506;10.400;2023-06-19T01:52:27;97657.97;;;25.04
64394;BMP280;50712;49.506;10.400;2023-06-19T01:52:58;97657.97;;;25.04
64394;BMP280;50712;49.506;10.400;2023-06-19T01:53:29;97648.31;;;25.05
64394;BMP280;50712;49.506;10.400;2023-06-19T01:54:01;97653.13;;;25.05
64394;BMP280;50712;49.506;10.400;2023-06-19T01:54:31;97651.66;;;25.04
64394;BMP280;50712;49.506;10.400;2023-06-19T01:55:02;97662.25;;;25.05
64394;BMP280;50712;49.506;10.400;2023-06-19T01:55:32;97655.19;;;25.04
64394;BMP280;50712;49.506;10.400;2023-06-19T01:56:02;97653.13;;;25.05
64394;BMP280;50712;49.506;10.400;2023-06-19T01:56:34;97662.25;;;25.05
64394;BMP280;50712;49.506;10.400;2023-06-19T01:57:05;97664.28;;;25.05
64394;BMP280;50712;49.506;10.400;2023-06-19T01:57:36;97660.75;;;25.04
64394;BMP280;50712;49.506;10.400;2023-06-19T01:58:06;97657.97;;;25.04
64394;BMP280;50712;49.506;10.400;2023-06-19T01:58:37;97657.97;;;25.04
64394;BMP280;50712;49.506;10.400;2023-06-19T01:59:07;97661.50;;;25.05
64394;BMP280;50712;49.506;10.400;2023-06-19T01:59:37;97660.75;;;25.04
64394;BMP280;50712;49.506;10.400;2023-06-19T02:00:09;97660.75;;;25.04
64394;BMP280;50712;49.506;10.400;2023-06-19T02:00:46;97660.00;;;25.04
64394;BMP280;50712;49.506;10.400;2023-06-19T02:01:18;97664.28;;;25.05
64394;BMP280;50712;49.506;10.400;2023-06-19T02:01:48;97660.75;;;25.04
64394;BMP280;50712;49.506;10.400;2023-06-19T02:02:18;97660.00;;;25.04
64394;BMP280;50712;49.506;10.400;2023-06-19T02:02:49;97665.59;;;25.04
64394;BMP280;50712;49.506;10.400;2023-06-19T02:03:21;97665.59;;;25.04
64394;BMP280;50712;49.506;10.400;2023-06-19T02:03:51;97660.00;;;25.04
64394;BMP280;50712;49.506;10.400;2023-06-19T02:04:22;97664.88;;;25.03
64394;BMP280;50712;49.506;10.400;2023-06-19T02:04:52;97659.28;;;25.03
64394;BMP280;50712;49.506;10.400;2023-06-19T02:05:22;97660.56;;;25.02
64394;BMP280;50712;49.506;10.400;2023-06-19T02:05:53;97666.16;;;25.02
64394;BMP280;50712;49.506;10.400;2023-06-19T02:06:24;97666.16;;;25.02
64394;BMP280;50712;49.506;10.400;2023-06-19T02:06:54;97674.50;;;25.02
64394;BMP280;50712;49.506;10.400;2023-06-19T02:07:25;97665.41;;;25.02
64394;BMP280;50712;49.506;10.400;2023-06-19T02:07:57;97665.41;;;25.02
64394;BMP280;50712;49.506;10.400;2023-06-19T02:08:27;97665.41;;;25.02
64394;BMP280;50712;49.506;10.400;2023-06-19T02:08:57;97668.78;;;25.00
64394;BMP280;50712;49.506;10.400;2023-06-19T02:09:28;97668.03;;;25.00
64394;BMP280;50712;49.506;10.400;2023-06-19T02:09:58;97670.81;;;25.00
64394;BMP280;50712;49.506;10.400;2023-06-19T02:10:28;97663.19;;;25.00
64394;BMP280;50712;49.506;10.400;2023-06-19T02:10:59;97671.56;;;25.00
64394;BMP280;50712;49.506;10.400;2023-06-19T02:11:30;97672.84;;;24.99
64394;BMP280;50712;49.506;10.400;2023-06-19T02:12:00;97669.31;;;24.99
64394;BMP280;50712;49.506;10.400;2023-06-19T02:12:31;97675.63;;;24.99
64394;BMP280;50712;49.506;10.400;2023-06-19T02:13:01;97676.91;;;24.98
64394;BMP280;50712;49.506;10.400;2023-06-19T02:13:31;97669.31;;;24.99
64394;BMP280;50712;49.506;10.400;2023-06-19T02:14:02;97686.03;;;24.99
64394;BMP280;50712;49.506;10.400;2023-06-19T02:14:32;97680.44;;;24.99
64394;BMP280;50712;49.506;10.400;2023-06-19T02:15:03;97667.78;;;24.98
64394;BMP280;50712;49.506;10.400;2023-06-19T02:15:34;97670.59;;;24.98
64394;BMP280;50712;49.506;10.400;2023-06-19T02:16:04;97676.16;;;24.98
64394;BMP280;50712;49.506;10.400;2023-06-19T02:16:34;97674.13;;;24.98
64394;BMP280;50712;49.506;10.400;2023-06-19T02:17:05;97679.69;;;24.98
64394;BMP280;50712;49.506;10.400;2023-06-19T02:17:35;97679.69;;;24.98
64394;BMP280;50712;49.506;10.400;2023-06-19T02:18:08;97678.94;;;24.98
64394;BMP280;50712;49.506;10.400;2023-06-19T02:18:38;97671.94;;;24.97
64394;BMP280;50712;49.506;10.400;2023-06-19T02:19:12;97673.38;;;24.98
64394;BMP280;50712;49.506;10.400;2023-06-19T02:19:42;97678.22;;;24.97
64394;BMP280;50712;49.506;10.400;2023-06-19T02:20:13;97679.53;;;24.96
64394;BMP280;50712;49.506;10.400;2023-06-19T02:20:43;97671.94;;;24.97
64394;BMP280;50712;49.506;10.400;2023-06-19T02:21:13;97673.97;;;24.96
64394;BMP280;50712;49.506;10.400;2023-06-19T02:21:44;97678.78;;;24.96
64394;BMP280;50712;49.506;10.400;2023-06-19T02:22:14;97674.50;;;24.95
64394;BMP280;50712;49.506;10.400;2023-06-19T02:22:44;97666.13;;;24.95
64394;BMP280;50712;49.506;10.400;2023-06-19T02:23:15;97674.50;;;24.95
64394;BMP280;50712;49.506;10.400;2023-06-19T02:23:45;97674.50;;;24.95
64394;BMP280;50712;49.506;10.400;2023-06-19T02:24:16;97673.03;;;24.94
64394;BMP280;50712;49.506;10.400;2023-06-19T02:24:46;97674.50;;;24.95
64394;BMP280;50712;49.506;10.400;2023-06-19T02:25:17;97670.97;;;24.94
64394;BMP280;50712;49.506;10.400;2023-06-19T02:25:47;97673.78;;;24.94
64394;BMP280;50712;49.506;10.400;2023-06-19T02:26:20;97668.19;;;24.94
64394;BMP280;50712;49.506;10.400;2023-06-19T02:26:50;97672.28;;;24.93
64394;BMP280;50712;49.506;10.400;2023-06-19T02:27:21;97664.69;;;24.94
64394;BMP280;50712;49.506;10.400;2023-06-19T02:27:51;97675.06;;;24.93
64394;BMP280;50712;49.506;10.400;2023-06-19T02:28:21;97672.28;;;24.93
64394;BMP280;50712;49.506;10.400;2023-06-19T02:28:52;97668.00;;;24.92
64394;BMP280;50712;49.506;10.400;2023-06-19T02:29:22;97667.25;;;24.92
64394;BMP280;50712;49.506;10.400;2023-06-19T02:29:53;97674.16;;;24.91
64394;BMP280;50712;49.506;10.400;2023-06-19T02:30:23;97676.19;;;24.90
64394;BMP280;50712;49.506;10.400;2023-06-19T02:30:54;97675.44;;;24.90
64394;BMP280;50712;49.506;10.400;2023-06-19T02:31:24;97667.63;;;24.88
64394;BMP280;50712;49.506;10.400;2023-06-19T02:31:55;97668.94;;;24.87
64394;BMP280;50712;49.506;10.400;2023-06-19T02:32:26;97671.75;;;24.87
64394;BMP280;50712;49.506;10.400;2023-06-19T02:32:56;97676.56;;;24.87
64394;BMP280;50712;49.506;10.400;2023-06-19T02:33:27;97674.53;;;24.87
64394;BMP280;50712;49.506;10.400;2023-06-19T02:33:58;97675.97;;;24.88
64394;BMP280;50712;49.506;10.400;2023-06-19T02:34:29;97672.28;;;24.86
64394;BMP280;50712;49.506;10.400;2023-06-19T02:34:59;97672.47;;;24.88
64394;BMP280;50712;49.506;10.400;2023-06-19T02:35:29;97671.75;;;24.87
64394;BMP280;50712;49.506;10.400;2023-06-19T02:36:00;97673.78;;;24.87
64394;BMP280;50712;49.506;10.400;2023-06-19T02:36:31;97680.09;;;24.87
64394;BMP280;50712;49.506;10.400;2023-06-19T02:37:02;97673.03;;;24.86
64394;BMP280;50712;49.506;10.400;2023-06-19T02:37:32;97673.03;;;24.86
64394;BMP280;50712;49.506;10.400;2023-06-19T02:38:05;97672.28;;;24.86
64394;BMP280;50712;49.506;10.400;2023-06-19T02:38:36;97668.19;;;24.87
64394;BMP280;50712;49.506;10.400;2023-06-19T02:39:07;97671.50;;;24.85
64394;BMP280;50712;49.506;10.400;2023-06-19T02:39:39;97665.94;;;24.85
64394;BMP280;50712;49.506;10.400;2023-06-19T02:40:09;97669.47;;;24.86
64394;BMP280;50712;49.506;10.400;2023-06-19T02:40:40;97661.13;;;24.86
64394;BMP280;50712;49.506;10.400;2023-06-19T02:41:11;97669.47;;;24.86
64394;BMP280;50712;49.506;10.400;2023-06-19T02:41:41;97668.72;;;24.85
64394;BMP280;50712;49.506;10.400;2023-06-19T02:42:15;97666.53;;;24.84
64394;BMP280;50712;49.506;10.400;2023-06-19T02:42:47;97675.59;;;24.84
64394;BMP280;50712;49.506;10.400;2023-06-19T02:43:18;97673.38;;;24.83
64394;BMP280;50712;49.506;10.400;2023-06-19T02:43:48;97683.78;;;24.82
64394;BMP280;50712;49.506;10.400;2023-06-19T02:44:19;97677.44;;;24.82
64394;BMP280;50712;49.506;10.400;2023-06-19T02:44:50;97686.41;;;24.80
64394;BMP280;50712;49.506;10.400;2023-06-19T02:45:20;97684.91;;;24.79
64394;BMP280;50712;49.506;10.400;2023-06-19T02:45:51;97683.41;;;24.78
64394;BMP280;50712;49.506;10.400;2023-06-19T02:46:22;97684.72;;;24.77
64394;BMP280;50712;49.506;10.400;2023-06-19T02:46:52;97681.94;;;24.77
64394;BMP280;50712;49.506;10.400;2023-06-19T02:47:22;97680.44;;;24.76
64394;BMP280;50712;49.506;10.400;2023-06-19T02:47:53;97687.28;;;24.75
64394;BMP280;50712;49.506;10.400;2023-06-19T02:48:23;97686.56;;;24.75
64394;BMP280;50712;49.506;10.400;2023-06-19T02:48:53;97683.03;;;24.74
64394;BMP280;50712;49.506;10.400;2023-06-19T02:49:26;97682.31;;;24.74
64394;BMP280;50712;49.506;10.400;2023-06-19T02:49:59;97683.59;;;24.73
64394;BMP280;50712;49.506;10.400;2023-06-19T02:50:30;97683.59;;;24.73
64394;BMP280;50712;49.506;10.400;2023-06-19T02:51:01;97680.81;;;24.73
64394;BMP280;50712;49.506;10.400;2023-06-19T02:51:31;97689.72;;;24.71
64394;BMP280;50712;49.506;10.400;2023-06-19T02:52:01;97691.19;;;24.72
64394;BMP280;50712;49.506;10.400;2023-06-19T02:52:32;97680.59;;;24.71
64394;BMP280;50712;49.506;10.400;2023-06-19T02:53:03;97689.72;;;24.71
64394;BMP280;50712;49.506;10.400;2023-06-19T02:53:33;97689.72;;;24.71
64394;BMP280;50712;49.506;10.400;2023-06-19T02:54:04;97682.09;;;24.72
64394;BMP280;50712;49.506;10.400;2023-06-19T02:54:34;97686.16;;;24.71
64394;BMP280;50712;49.506;10.400;2023-06-19T02:55:04;97690.47;;;24.72
64394;BMP280;50712;49.506;10.400;2023-06-19T02:55:37;97688.97;;;24.71
64394;BMP280;50712;49.506;10.400;2023-06-19T02:56:07;97688.97;;;24.71
64394;BMP280;50712;49.506;10.400;2023-06-19T02:56:38;97681.16;;;24.69
64394;BMP280;50712;49.506;10.400;2023-06-19T02:57:08;97691.56;;;24.69
64394;BMP280;50712;49.506;10.400;2023-06-19T02:57:39;97683.94;;;24.69
64394;BMP280;50712;49.506;10.400;2023-06-19T02:58:10;97690.28;;;24.70
64394;BMP280;50712;49.506;10.400;2023-06-19T02:58:42;97688.78;;;24.69
64394;BMP280;50712;49.506;10.400;2023-06-19T02:59:12;97695.09;;;24.69
64394;BMP280;50712;49.506;10.400;2023-06-19T02:59:43;97682.47;;;24.68
64394;BMP280;50712;49.506;10.400;2023-06-19T03:00:13;97685.25;;;24.68